Aviation Digital Data Service (ADDS)

Output produced by METARs form (1901 UTC 24 June 2017)
found at http://aviationweather.gov/adds/metars/
 
KTOL 241727Z 2418/2518 27012KT P6SM SCT060 
     FM250000 26006KT P6SM SCT250 
     FM251500 26012KT P6SM SCT100